Time;durP1;ratioP1;P1;durP2;ratioP2;P2;SDS_P1;SDS_P2;PMS_P1;PMS_P2;Temp;Humidity;BMP_temperature;BMP_pressure;BME280_temperature;BME280_humidity;BME280_pressure;Samples;Min_cycle;Max_cycle;Signal;HPM_P1;HPM_P2
2024/04/01 00:00:44;;;;;;;;;;;;;;;17.74;42.32;94634.41;4164938;28;20395;-66
2024/04/01 00:02:44;;;;;;;;;;;;;;;17.76;42.50;94633.19;4171547;28;19924;-66
2024/04/01 00:04:45;;;;;;;;;;;;;;;17.76;41.85;94642.97;4162877;28;19975;-67
2024/04/01 00:06:46;;;;;;;;;;;;;;;17.70;41.84;94635.84;4169750;28;19920;-64
2024/04/01 00:08:46;;;;;;;;;;;;;;;17.66;41.79;94631.97;4168710;28;19920;-65
2024/04/01 00:10:48;;;;;;;;;;;;;;;17.67;41.94;94628.31;4176434;28;20439;-68
2024/04/01 00:12:48;;;;;;;;;;;;;;;17.70;41.97;94631.38;4175190;28;19921;-67
2024/04/01 00:14:49;;;;;;;;;;;;;;;17.58;42.52;94622.41;4163420;28;20312;-67
2024/04/01 00:16:49;;;;;;;;;;;;;;;17.53;41.99;94625.69;4162133;28;19921;-66
2024/04/01 00:18:50;;;;;;;;;;;;;;;17.59;41.52;94634.63;4170860;28;19920;-68
2024/04/01 00:20:58;;;;;;;;;;;;;;;17.65;41.50;94633.00;4169182;28;19920;-67
2024/04/01 00:22:59;;;;;;;;;;;;;;;17.71;41.37;94627.69;4172495;28;20343;-66
2024/04/01 00:24:59;;;;;;;;;;;;;;;17.76;41.25;94622.59;4175133;28;19952;-67
2024/04/01 00:27:00;;;;;;;;;;;;;;;17.81;41.39;94627.31;4170106;28;19921;-66
2024/04/01 00:29:00;;;;;;;;;;;;;;;17.86;40.99;94630.16;4176759;28;19943;-66
2024/04/01 00:31:01;;;;;;;;;;;;;;;17.89;41.29;94618.34;4164013;28;19933;-66
2024/04/01 00:33:03;;;;;;;;;;;;;;;17.87;41.47;94621.19;4172312;28;19961;-66
2024/04/01 00:35:03;;;;;;;;;;;;;;;17.81;41.43;94627.31;4165651;28;19921;-66
2024/04/01 00:37:04;;;;;;;;;;;;;;;17.77;41.57;94618.13;4167114;28;20304;-67
2024/04/01 00:39:04;;;;;;;;;;;;;;;17.68;41.70;94622.00;4165423;28;19920;-67
2024/04/01 00:41:05;;;;;;;;;;;;;;;17.71;41.74;94624.25;4174840;28;19955;-66
2024/04/01 00:43:06;;;;;;;;;;;;;;;17.63;41.71;94621.81;4155265;28;19988;-66
2024/04/01 00:45:09;;;;;;;;;;;;;;;17.56;42.08;94622.63;4176465;28;20043;-68
2024/04/01 00:47:10;;;;;;;;;;;;;;;17.52;42.27;94629.34;4167050;28;20264;-66
2024/04/01 00:49:10;;;;;;;;;;;;;;;17.49;42.47;94632.41;4172216;28;19921;-66
2024/04/01 00:51:11;;;;;;;;;;;;;;;17.52;42.74;94620.56;4169587;28;19921;-68
2024/04/01 00:53:12;;;;;;;;;;;;;;;17.41;42.36;94629.94;4172048;28;20396;-66
2024/04/01 00:55:12;;;;;;;;;;;;;;;17.41;42.38;94627.28;4157107;28;19929;-66
2024/04/01 00:57:13;;;;;;;;;;;;;;;17.43;42.69;94625.25;4166442;28;19989;-66
2024/04/01 00:59:14;;;;;;;;;;;;;;;17.45;43.05;94617.13;4160383;28;19975;-67
2024/04/01 01:01:15;;;;;;;;;;;;;;;17.37;42.54;94620.78;4155328;28;20450;-66
2024/04/01 01:03:15;;;;;;;;;;;;;;;17.38;42.85;94633.00;4158583;28;19955;-66
2024/04/01 01:05:16;;;;;;;;;;;;;;;17.39;42.95;94618.75;4167702;28;19946;-65
2024/04/01 01:07:16;;;;;;;;;;;;;;;17.39;42.83;94619.53;4168717;28;19921;-65
2024/04/01 01:09:17;;;;;;;;;;;;;;;17.39;42.86;94624.84;4164095;28;19927;-66
2024/04/01 01:11:18;;;;;;;;;;;;;;;17.41;42.70;94622.00;4164089;28;19954;-66
2024/04/01 01:13:19;;;;;;;;;;;;;;;17.36;43.26;94624.44;4143637;28;20323;-65
2024/04/01 01:15:19;;;;;;;;;;;;;;;17.37;42.94;94621.59;4157647;28;19982;-67
2024/04/01 01:17:20;;;;;;;;;;;;;;;17.24;43.21;94629.53;4159143;28;19925;-66
2024/04/01 01:19:20;;;;;;;;;;;;;;;17.27;43.06;94626.47;4155736;28;19932;-66
2024/04/01 01:21:21;;;;;;;;;;;;;;;17.27;43.27;94621.19;4161487;28;19921;-65
2024/04/01 01:23:22;;;;;;;;;;;;;;;17.22;43.36;94623.59;4168074;28;19921;-65
2024/04/01 01:25:23;;;;;;;;;;;;;;;17.12;43.43;94624.03;4165060;28;20350;-67
2024/04/01 01:27:23;;;;;;;;;;;;;;;16.93;43.89;94611.56;4167383;28;19920;-65
2024/04/01 01:29:24;;;;;;;;;;;;;;;16.90;44.00;94617.25;4169906;28;19926;-65
2024/04/01 01:31:24;;;;;;;;;;;;;;;16.86;44.28;94621.28;4166877;28;20467;-66
2024/04/01 01:33:25;;;;;;;;;;;;;;;16.88;44.08;94616.63;4165587;28;19958;-67
2024/04/01 01:35:26;;;;;;;;;;;;;;;16.82;44.24;94615.59;4159443;28;19975;-66
2024/04/01 01:37:27;;;;;;;;;;;;;;;16.84;44.24;94618.03;4170475;28;19999;-66
2024/04/01 01:39:27;;;;;;;;;;;;;;;16.80;44.14;94609.69;4171011;28;20007;-66
2024/04/01 01:41:28;;;;;;;;;;;;;;;16.84;44.06;94600.31;4166590;28;19925;-66
2024/04/01 01:43:28;;;;;;;;;;;;;;;16.91;44.06;94605.66;4166207;28;19964;-66
2024/04/01 01:45:29;;;;;;;;;;;;;;;16.92;44.05;94605.44;4164659;28;19928;-64
2024/04/01 01:47:33;;;;;;;;;;;;;;;16.96;44.06;94609.31;4167194;28;19921;-67
2024/04/01 01:49:33;;;;;;;;;;;;;;;16.98;44.01;94611.75;4167524;28;19980;-65
2024/04/01 01:51:34;;;;;;;;;;;;;;;17.03;44.01;94603.22;4164482;28;19924;-67
2024/04/01 01:53:34;;;;;;;;;;;;;;;17.03;43.77;94611.97;4174501;28;20453;-66
2024/04/01 01:55:35;;;;;;;;;;;;;;;16.98;43.92;94612.56;4156720;28;20431;-66
2024/04/01 01:57:36;;;;;;;;;;;;;;;16.69;44.36;94603.13;4166467;28;19970;-65
2024/04/01 01:59:36;;;;;;;;;;;;;;;16.69;44.19;94610.22;4169878;28;19998;-64
2024/04/01 02:01:37;;;;;;;;;;;;;;;16.76;43.92;94592.56;4171614;28;20379;-66
2024/04/01 02:03:38;;;;;;;;;;;;;;;16.68;44.89;94585.63;4170124;28;19979;-65
2024/04/01 02:05:40;;;;;;;;;;;;;;;16.57;44.94;94588.84;4174050;28;20276;-65
2024/04/01 02:07:42;;;;;;;;;;;;;;;16.56;44.69;94603.91;4173892;28;19928;-67
2024/04/01 02:09:43;;;;;;;;;;;;;;;16.62;44.36;94591.69;4170989;28;19947;-66
2024/04/01 02:11:45;;;;;;;;;;;;;;;16.52;44.80;94586.78;4169478;28;19979;-66
2024/04/01 02:13:45;;;;;;;;;;;;;;;16.63;44.41;94598.63;4171084;28;20009;-66
2024/04/01 02:15:46;;;;;;;;;;;;;;;16.74;44.30;94600.69;4166902;28;19929;-67
2024/04/01 02:17:46;;;;;;;;;;;;;;;16.85;44.02;94599.31;4163745;28;20438;-66
2024/04/01 02:19:47;;;;;;;;;;;;;;;16.80;44.29;94601.75;4173126;28;20359;-66
2024/04/01 02:21:48;;;;;;;;;;;;;;;16.78;44.46;94601.13;4173394;28;19951;-66
2024/04/01 02:23:48;;;;;;;;;;;;;;;16.75;44.57;94597.00;4154230;28;20408;-67
2024/04/01 02:25:50;;;;;;;;;;;;;;;16.62;44.66;94598.81;4168578;28;19925;-67
2024/04/01 02:27:51;;;;;;;;;;;;;;;16.58;44.77;94603.69;4156937;28;20422;-65
2024/04/01 02:29:52;;;;;;;;;;;;;;;16.62;44.87;94591.69;4172320;28;20379;-65
2024/04/01 02:31:52;;;;;;;;;;;;;;;16.64;45.10;94592.31;4165195;28;19952;-65
2024/04/01 02:33:53;;;;;;;;;;;;;;;16.68;45.00;94614.72;4164160;28;19921;-66
2024/04/01 02:35:54;;;;;;;;;;;;;;;16.70;44.95;94611.88;4167191;28;20083;-65
2024/04/01 02:37:54;;;;;;;;;;;;;;;16.52;45.37;94612.41;4172569;28;19964;-65
2024/04/01 02:39:55;;;;;;;;;;;;;;;16.42;45.57;94618.06;4167868;28;19987;-67
2024/04/01 02:41:57;;;;;;;;;;;;;;;16.46;45.60;94623.78;4171946;28;19920;-67
2024/04/01 02:43:57;;;;;;;;;;;;;;;16.51;45.74;94626.66;4174895;28;19925;-67
2024/04/01 02:45:59;;;;;;;;;;;;;;;16.56;45.49;94625.06;4173494;28;19951;-66
2024/04/01 02:48:00;;;;;;;;;;;;;;;16.62;45.33;94604.91;4179019;28;20087;-67
2024/04/01 02:50:02;;;;;;;;;;;;;;;16.63;45.23;94608.38;4166327;28;19921;-67
2024/04/01 02:52:02;;;;;;;;;;;;;;;16.66;45.33;94614.09;4162811;28;19975;-68
2024/04/01 02:54:03;;;;;;;;;;;;;;;16.68;44.80;94614.72;4168395;28;20421;-66
2024/04/01 02:56:06;;;;;;;;;;;;;;;16.46;45.89;94613.22;4178668;28;19924;-66
2024/04/01 02:58:07;;;;;;;;;;;;;;;16.40;45.82;94619.28;4174931;28;20031;-66
2024/04/01 03:00:15;;;;;;;;;;;;;;;16.40;45.86;94614.81;4163816;28;20019;-67
2024/04/01 03:02:16;;;;;;;;;;;;;;;16.45;46.02;94611.56;4173123;28;19921;-66
2024/04/01 03:04:16;;;;;;;;;;;;;;;16.43;46.04;94608.31;4174166;28;20133;-67
2024/04/01 03:06:17;;;;;;;;;;;;;;;16.42;45.97;94606.69;4176962;28;19936;-65
2024/04/01 03:08:18;;;;;;;;;;;;;;;16.42;45.90;94604.84;4180147;28;19921;-68
2024/04/01 03:10:18;;;;;;;;;;;;;;;16.47;45.68;94609.53;4169948;28;19983;-66
2024/04/01 03:12:19;;;;;;;;;;;;;;;16.48;45.95;94595.31;4170751;28;19920;-67
2024/04/01 03:14:20;;;;;;;;;;;;;;;16.45;45.85;94612.38;4164214;28;20010;-67
2024/04/01 03:16:21;;;;;;;;;;;;;;;16.48;45.58;94597.97;4172718;28;19940;-67
2024/04/01 03:18:21;;;;;;;;;;;;;;;16.55;45.39;94618.13;4178317;28;19920;-65
2024/04/01 03:20:22;;;;;;;;;;;;;;;16.55;45.76;94610.19;4174969;28;20281;-65
2024/04/01 03:22:23;;;;;;;;;;;;;;;16.46;45.94;94613.22;4158331;28;20599;-66
2024/04/01 03:24:23;;;;;;;;;;;;;;;16.40;46.00;94614.81;4152240;28;19929;-66
2024/04/01 03:26:24;;;;;;;;;;;;;;;16.37;45.86;94616.03;4170419;28;20355;-66
2024/04/01 03:28:25;;;;;;;;;;;;;;;16.38;45.88;94607.06;4172888;28;20018;-68
2024/04/01 03:30:25;;;;;;;;;;;;;;;16.35;45.94;94610.13;4170129;28;19925;-66
2024/04/01 03:32:26;;;;;;;;;;;;;;;16.34;45.88;94615.59;4160389;28;19925;-67
2024/04/01 03:34:27;;;;;;;;;;;;;;;16.38;45.86;94612.34;4169934;28;20244;-65
2024/04/01 03:36:29;;;;;;;;;;;;;;;16.41;45.65;94615.63;4173130;28;19971;-64
2024/04/01 03:38:29;;;;;;;;;;;;;;;16.44;45.76;94602.81;4167403;28;20400;-66
2024/04/01 03:40:30;;;;;;;;;;;;;;;16.38;46.04;94606.25;4174586;28;19921;-67
2024/04/01 03:42:30;;;;;;;;;;;;;;;16.36;46.08;94603.81;4168465;28;20471;-67
2024/04/01 03:44:31;;;;;;;;;;;;;;;16.40;46.05;94612.16;4160430;28;19963;-66
2024/04/01 03:46:32;;;;;;;;;;;;;;;16.40;45.69;94609.53;4164845;28;20006;-65
2024/04/01 03:48:34;;;;;;;;;;;;;;;16.41;45.62;94615.63;4170369;28;19971;-66
2024/04/01 03:50:40;;;;;;;;;;;;;;;16.30;45.34;94625.72;4171570;28;19932;-65
2024/04/01 03:52:41;;;;;;;;;;;;;;;16.17;45.72;94612.47;4171814;28;20338;-67
2024/04/01 03:54:42;;;;;;;;;;;;;;;15.94;46.20;94615.41;4171366;28;19925;-67
2024/04/01 03:56:42;;;;;;;;;;;;;;;15.92;46.50;94612.94;4163708;28;19920;-65
2024/04/01 03:58:43;;;;;;;;;;;;;;;15.91;46.53;94613.94;4170149;28;20273;-67
2024/04/01 04:00:44;;;;;;;;;;;;;;;15.87;46.49;94625.09;4168435;28;20240;-67
2024/04/01 04:02:44;;;;;;;;;;;;;;;15.84;46.50;94618.38;4174668;28;20410;-68
2024/04/01 04:04:45;;;;;;;;;;;;;;;15.86;46.61;94628.75;4163285;28;20359;-68
2024/04/01 04:06:47;;;;;;;;;;;;;;;15.95;46.59;94620.47;4171586;28;19921;-67
2024/04/01 04:08:48;;;;;;;;;;;;;;;15.96;46.69;94619.47;4174919;28;20572;-67
2024/04/01 04:10:48;;;;;;;;;;;;;;;16.05;46.22;94629.88;4175712;28;19955;-68
2024/04/01 04:12:50;;;;;;;;;;;;;;;16.02;46.39;94628.44;4174903;28;19967;-68
2024/04/01 04:14:50;;;;;;;;;;;;;;;16.03;46.25;94635.34;4175552;28;19990;-68
2024/04/01 04:16:51;;;;;;;;;;;;;;;16.10;46.56;94635.41;4170993;28;20039;-69
2024/04/01 04:18:52;;;;;;;;;;;;;;;16.10;46.26;94624.81;4171253;28;19979;-69
2024/04/01 04:20:54;;;;;;;;;;;;;;;16.10;46.22;94636.22;4148763;28;20026;-68
2024/04/01 04:22:55;;;;;;;;;;;;;;;16.16;46.09;94651.28;4173425;28;20334;-65
2024/04/01 04:24:56;;;;;;;;;;;;;;;16.09;46.33;94639.03;4167759;28;19951;-67
2024/04/01 04:26:56;;;;;;;;;;;;;;;16.02;46.09;94649.56;4169739;28;19921;-65
2024/04/01 04:28:57;;;;;;;;;;;;;;;16.10;46.08;94641.50;4169197;28;19935;-68
2024/04/01 04:30:58;;;;;;;;;;;;;;;15.90;46.54;94638.72;4169237;28;19925;-66
2024/04/01 04:32:59;;;;;;;;;;;;;;;15.96;46.35;94634.50;4168646;28;19921;-68
2024/04/01 04:34:59;;;;;;;;;;;;;;;15.99;46.41;94638.59;4172074;28;19966;-66
2024/04/01 04:37:00;;;;;;;;;;;;;;;16.02;46.41;94664.59;4171176;28;19924;-66
2024/04/01 04:39:01;;;;;;;;;;;;;;;16.08;46.35;94648.00;4168085;28;20032;-67
2024/04/01 04:41:02;;;;;;;;;;;;;;;16.22;46.13;94644.41;4167438;28;20059;-68
2024/04/01 04:43:04;;;;;;;;;;;;;;;16.29;46.48;94634.69;4165397;28;20296;-68
2024/04/01 04:45:05;;;;;;;;;;;;;;;16.31;46.52;94635.31;4153682;28;19974;-67
2024/04/01 04:47:05;;;;;;;;;;;;;;;16.34;46.22;94648.13;4165595;28;19924;-67
2024/04/01 04:49:07;;;;;;;;;;;;;;;16.38;45.72;94648.56;4175416;28;19928;-68
2024/04/01 04:51:07;;;;;;;;;;;;;;;16.46;45.95;94652.88;4162981;28;20556;-66
2024/04/01 04:53:08;;;;;;;;;;;;;;;16.52;45.64;94652.91;4170335;28;19963;-68
2024/04/01 04:55:09;;;;;;;;;;;;;;;16.58;45.40;94654.75;4160266;28;19948;-69
2024/04/01 04:57:09;;;;;;;;;;;;;;;16.61;45.35;94656.19;4176282;28;19921;-66
2024/04/01 04:59:11;;;;;;;;;;;;;;;16.67;45.00;94647.47;4176880;28;19921;-67
2024/04/01 05:01:12;;;;;;;;;;;;;;;16.37;46.38;94653.03;4169711;28;19943;-68
2024/04/01 05:03:12;;;;;;;;;;;;;;;16.42;46.25;94655.09;4177584;28;19979;-67
2024/04/01 05:05:19;;;;;;;;;;;;;;;16.53;45.93;94646.59;4175046;28;20271;-67
2024/04/01 05:07:20;;;;;;;;;;;;;;;16.62;45.73;94660.47;4172746;28;19921;-68
2024/04/01 05:09:23;;;;;;;;;;;;;;;16.74;45.52;94650.94;4164018;28;19936;-67
2024/04/01 05:11:23;;;;;;;;;;;;;;;16.82;45.24;94659.75;4168472;28;19921;-69
2024/04/01 05:13:24;;;;;;;;;;;;;;;16.87;44.93;94652.84;4175787;28;19964;-69
2024/04/01 05:15:25;;;;;;;;;;;;;;;16.93;45.13;94660.00;4171803;28;20358;-65
2024/04/01 05:17:26;;;;;;;;;;;;;;;16.97;44.83;94663.03;4174188;28;20004;-68
2024/04/01 05:19:26;;;;;;;;;;;;;;;17.01;44.70;94650.25;4174879;28;19965;-67
2024/04/01 05:21:27;;;;;;;;;;;;;;;17.04;44.70;94645.38;4176240;28;19935;-67
2024/04/01 05:23:28;;;;;;;;;;;;;;;17.05;45.50;94649.63;4170459;28;19928;-68
2024/04/01 05:25:30;;;;;;;;;;;;;;;17.06;45.20;94651.28;4174130;28;19925;-70
2024/04/01 05:27:30;;;;;;;;;;;;;;;17.06;45.12;94646.00;4172817;28;19974;-70
2024/04/01 05:29:31;;;;;;;;;;;;;;;17.11;44.84;94648.84;4175616;28;19924;-66
2024/04/01 05:31:32;;;;;;;;;;;;;;;17.20;44.43;94652.91;4159423;28;19932;-67
2024/04/01 05:33:33;;;;;;;;;;;;;;;17.27;44.51;94647.66;4173946;28;20421;-68
2024/04/01 05:35:37;;;;;;;;;;;;;;;17.21;44.45;94645.81;4164571;28;19920;-67
2024/04/01 05:37:37;;;;;;;;;;;;;;;17.23;44.79;94649.06;4166207;28;20233;-68
2024/04/01 05:39:38;;;;;;;;;;;;;;;17.30;44.73;94643.78;4169026;28;19928;-70
2024/04/01 05:41:39;;;;;;;;;;;;;;;17.39;44.26;94642.56;4171571;28;19924;-68
2024/04/01 05:43:39;;;;;;;;;;;;;;;17.52;44.43;94647.88;4170041;28;20005;-68
2024/04/01 05:45:40;;;;;;;;;;;;;;;17.61;43.99;94640.53;4172887;28;19921;-70
2024/04/01 05:47:41;;;;;;;;;;;;;;;17.70;43.73;94641.16;4156177;28;19921;-69
2024/04/01 05:49:41;;;;;;;;;;;;;;;17.77;43.38;94634.84;4172638;28;19928;-68
2024/04/01 05:51:42;;;;;;;;;;;;;;;17.88;43.51;94648.53;4155069;28;20297;-70
2024/04/01 05:53:43;;;;;;;;;;;;;;;17.80;43.08;94634.41;4174042;28;20426;-68
2024/04/01 05:55:43;;;;;;;;;;;;;;;17.79;42.55;94645.25;4171945;28;20316;-69
2024/04/01 05:57:44;;;;;;;;;;;;;;;17.81;42.85;94645.84;4165828;28;20691;-70
2024/04/01 05:59:46;;;;;;;;;;;;;;;17.58;43.21;94654.19;4166660;28;19925;-70
2024/04/01 06:01:46;;;;;;;;;;;;;;;17.42;43.99;94665.19;4174376;28;19952;-69
2024/04/01 06:03:47;;;;;;;;;;;;;;;17.35;44.40;94652.75;4149699;28;19921;-68
2024/04/01 06:05:48;;;;;;;;;;;;;;;17.32;44.92;94653.16;4156905;28;19920;-68
2024/04/01 06:07:49;;;;;;;;;;;;;;;17.25;45.33;94665.59;4181832;28;20019;-70
2024/04/01 06:09:50;;;;;;;;;;;;;;;17.25;45.46;94665.59;4162878;28;19928;-67
2024/04/01 06:11:51;;;;;;;;;;;;;;;17.26;45.33;94661.09;4168233;28;19920;-70
2024/04/01 06:13:52;;;;;;;;;;;;;;;17.33;45.02;94648.66;4164669;28;19921;-68
2024/04/01 06:15:52;;;;;;;;;;;;;;;17.51;44.81;94658.66;4158210;28;19920;-69
2024/04/01 06:17:53;;;;;;;;;;;;;;;17.69;44.23;94661.53;4171244;28;19929;-70
2024/04/01 06:19:55;;;;;;;;;;;;;;;17.61;44.22;94659.06;4166379;28;19921;-69
2024/04/01 06:21:55;;;;;;;;;;;;;;;17.74;44.17;94647.66;4166492;28;19956;-69
2024/04/01 06:23:57;;;;;;;;;;;;;;;17.73;44.02;94664.59;4172386;28;20029;-68
2024/04/01 06:25:58;;;;;;;;;;;;;;;17.65;44.00;94656.84;4155638;28;19936;-68
2024/04/01 06:27:59;;;;;;;;;;;;;;;17.87;43.80;94658.28;4165340;28;19920;-68
2024/04/01 06:29:59;;;;;;;;;;;;;;;18.07;43.29;94658.28;4163231;28;19971;-70
2024/04/01 06:32:00;;;;;;;;;;;;;;;18.24;42.99;94652.53;4174752;28;20380;-68
2024/04/01 06:34:16;;;;;;;;;;;;;;;18.48;42.71;94657.16;4165351;28;20463;-70
2024/04/01 06:36:17;;;;;;;;;;;;;;;18.55;42.06;94650.00;4175055;28;19921;-68
2024/04/01 06:38:17;;;;;;;;;;;;;;;18.39;42.19;94653.09;4174862;28;19982;-70
2024/04/01 06:40:18;;;;;;;;;;;;;;;18.44;42.23;94647.19;4168036;28;19982;-67
2024/04/01 06:42:18;;;;;;;;;;;;;;;18.56;41.81;94656.94;4163004;28;20016;-68
2024/04/01 06:44:19;;;;;;;;;;;;;;;18.66;41.64;94650.38;4170753;28;19927;-69
2024/04/01 06:46:20;;;;;;;;;;;;;;;18.48;41.64;94657.16;4132467;28;20227;-68
2024/04/01 06:48:21;;;;;;;;;;;;;;;18.56;41.85;94650.81;4166375;28;19974;-69
2024/04/01 06:50:22;;;;;;;;;;;;;;;18.59;41.74;94655.72;4168182;28;20368;-70
2024/04/01 06:52:22;;;;;;;;;;;;;;;18.74;41.88;94653.59;4163930;28;19983;-67
2024/04/01 06:54:23;;;;;;;;;;;;;;;18.82;41.01;94656.06;4169310;28;20619;-66
2024/04/01 06:56:24;;;;;;;;;;;;;;;18.97;40.92;94662.91;4172441;28;19936;-70
2024/04/01 06:58:24;;;;;;;;;;;;;;;18.70;40.86;94651.59;4170819;28;19924;-68
2024/04/01 07:00:27;;;;;;;;;;;;;;;18.86;40.83;94660.94;4166894;28;19921;-71
2024/04/01 07:02:27;;;;;;;;;;;;;;;19.07;40.59;94655.31;4169463;28;20141;-70
2024/04/01 07:04:28;;;;;;;;;;;;;;;19.26;40.00;94666.03;4173496;28;19920;-68
2024/04/01 07:06:28;;;;;;;;;;;;;;;19.36;40.07;94671.69;4167606;28;20437;-69
2024/04/01 07:08:29;;;;;;;;;;;;;;;18.87;40.55;94668.69;4170750;28;20311;-68
2024/04/01 07:10:30;;;;;;;;;;;;;;;18.92;40.55;94674.16;4163875;28;19921;-68
2024/04/01 07:12:32;;;;;;;;;;;;;;;18.97;40.46;94665.56;4166808;28;19924;-69
2024/04/01 07:14:33;;;;;;;;;;;;;;;19.02;40.03;94677.19;4167086;28;19920;-67
2024/04/01 07:16:34;;;;;;;;;;;;;;;19.20;39.48;94673.81;4165065;28;20426;-70
2024/04/01 07:18:35;;;;;;;;;;;;;;;19.37;39.45;94673.31;4160121;28;20399;-68
2024/04/01 07:20:36;;;;;;;;;;;;;;;19.51;38.93;94689.97;4170984;28;19951;-69
2024/04/01 07:22:37;;;;;;;;;;;;;;;19.70;38.33;94664.31;4174093;28;19939;-69
2024/04/01 07:24:37;;;;;;;;;;;;;;;19.90;38.20;94662.34;4167298;28;19932;-69
2024/04/01 07:26:38;;;;;;;;;;;;;;;20.14;37.56;94665.19;4172535;28;19921;-68
2024/04/01 07:28:40;;;;;;;;;;;;;;;20.25;37.03;94657.28;4173971;28;19970;-68
2024/04/01 07:30:42;;;;;;;;;;;;;;;20.21;37.20;94644.66;4173003;28;19921;-66
2024/04/01 07:32:42;;;;;;;;;;;;;;;20.35;36.90;94659.47;4175817;28;20291;-67
2024/04/01 07:34:43;;;;;;;;;;;;;;;20.42;37.10;94649.53;4168541;28;19963;-68
2024/04/01 07:36:45;;;;;;;;;;;;;;;20.50;36.60;94660.91;4175501;28;19944;-69
2024/04/01 07:38:45;;;;;;;;;;;;;;;20.58;36.81;94658.81;4171539;28;19928;-69
2024/04/01 07:40:46;;;;;;;;;;;;;;;20.62;35.96;94667.19;4178890;28;20463;-68
2024/04/01 07:42:46;;;;;;;;;;;;;;;20.67;35.70;94667.31;4176919;28;19932;-69
2024/04/01 07:44:48;;;;;;;;;;;;;;;20.88;35.67;94667.91;4172454;28;19933;-68
2024/04/01 07:46:49;;;;;;;;;;;;;;;20.85;34.72;94664.66;4174476;28;20314;-69
2024/04/01 07:48:50;;;;;;;;;;;;;;;20.95;34.78;94665.97;4170330;28;19962;-70
2024/04/01 07:50:50;;;;;;;;;;;;;;;20.89;35.19;94658.84;4175996;28;21480;-70
2024/04/01 07:52:51;;;;;;;;;;;;;;;20.85;35.18;94663.84;4173242;28;20122;-68
2024/04/01 07:54:51;;;;;;;;;;;;;;;20.99;35.05;94667.13;4176497;28;19928;-66
2024/04/01 07:56:52;;;;;;;;;;;;;;;21.21;34.96;94657.63;4177339;28;20007;-68
2024/04/01 07:58:53;;;;;;;;;;;;;;;21.44;35.10;94666.75;4171882;28;20015;-72
2024/04/01 08:00:54;;;;;;;;;;;;;;;21.56;34.69;94656.97;4174453;28;20421;-68
2024/04/01 08:02:55;;;;;;;;;;;;;;;21.72;34.63;94652.00;4172523;28;19924;-70
2024/04/01 08:04:57;;;;;;;;;;;;;;;21.87;34.11;94657.69;4164739;28;19939;-67
2024/04/01 08:06:57;;;;;;;;;;;;;;;21.90;33.84;94654.59;4172796;28;19933;-70
2024/04/01 08:08:58;;;;;;;;;;;;;;;21.91;33.35;94653.53;4175380;28;19920;-70
2024/04/01 08:10:58;;;;;;;;;;;;;;;21.91;33.43;94650.06;4154200;28;19979;-69
2024/04/01 08:12:59;;;;;;;;;;;;;;;21.99;32.97;94650.53;4163654;28;20007;-69
2024/04/01 08:14:59;;;;;;;;;;;;;;;22.05;32.63;94638.94;4166723;28;20007;-70
2024/04/01 08:17:00;;;;;;;;;;;;;;;22.07;32.39;94649.38;4171845;28;19921;-69
2024/04/01 08:19:01;;;;;;;;;;;;;;;22.17;32.61;94643.44;4176176;28;19920;-69
2024/04/01 08:21:01;;;;;;;;;;;;;;;22.26;31.88;94634.91;4162966;28;19991;-71
2024/04/01 08:23:02;;;;;;;;;;;;;;;22.15;32.00;94646.34;4164883;28;19928;-69
2024/04/01 08:25:04;;;;;;;;;;;;;;;22.24;32.07;94638.81;4175049;28;19929;-68
2024/04/01 08:27:05;;;;;;;;;;;;;;;22.26;32.10;94632.25;4168667;28;19936;-71
2024/04/01 08:29:07;;;;;;;;;;;;;;;22.44;32.17;94639.28;4168026;28;20504;-71
2024/04/01 08:31:08;;;;;;;;;;;;;;;22.59;31.48;94635.31;4174685;28;19921;-68
2024/04/01 08:33:09;;;;;;;;;;;;;;;22.62;31.99;94637.50;4176765;28;20296;-70
2024/04/01 08:35:11;;;;;;;;;;;;;;;22.83;32.17;94636.06;4170183;28;19921;-70
2024/04/01 08:37:11;;;;;;;;;;;;;;;23.05;31.71;94634.38;4171208;28;20439;-67
2024/04/01 08:39:12;;;;;;;;;;;;;;;22.94;30.89;94634.41;4173247;28;19920;-69
2024/04/01 08:41:31;;;;;;;;;;;;;;;22.72;31.32;94628.91;4173939;28;19920;-67
2024/04/01 08:43:37;;;;;;;;;;;;;;;22.77;31.51;94632.47;4154814;28;20166;-70
2024/04/01 08:45:38;;;;;;;;;;;;;;;22.89;31.31;94624.44;4166149;28;20288;-69
2024/04/01 08:47:40;;;;;;;;;;;;;;;22.92;31.25;94623.16;4158663;28;20011;-71
2024/04/01 08:49:56;;;;;;;;;;;;;;;22.95;31.21;94630.69;4165989;28;19921;-68
2024/04/01 08:51:56;;;;;;;;;;;;;;;22.96;31.27;94626.97;4169421;28;19921;-67
2024/04/01 08:53:57;;;;;;;;;;;;;;;23.16;31.18;94622.03;4137613;28;19925;-69
2024/04/01 08:55:58;;;;;;;;;;;;;;;23.23;30.92;94621.88;4168566;28;21557;-67
2024/04/01 08:57:58;;;;;;;;;;;;;;;23.29;30.62;94618.25;4170575;28;19966;-68
2024/04/01 08:59:59;;;;;;;;;;;;;;;23.24;30.02;94610.97;4157415;28;19943;-68
2024/04/01 09:02:01;;;;;;;;;;;;;;;23.13;30.17;94603.81;4159164;28;19988;-69
2024/04/01 09:04:03;;;;;;;;;;;;;;;23.29;30.09;94600.34;4165495;28;19940;-69
2024/04/01 09:06:04;;;;;;;;;;;;;;;23.55;30.13;94600.78;4163906;28;19933;-71
2024/04/01 09:08:05;;;;;;;;;;;;;;;23.78;29.67;94593.69;4159009;28;20394;-68
2024/04/01 09:10:07;;;;;;;;;;;;;;;23.97;29.31;94584.38;4174042;28;20160;-69
2024/04/01 09:12:07;;;;;;;;;;;;;;;24.12;29.26;94571.19;4175303;28;19921;-67
2024/04/01 09:14:09;;;;;;;;;;;;;;;24.17;28.58;94566.97;4159651;28;19925;-70
2024/04/01 09:16:09;;;;;;;;;;;;;;;24.28;28.41;94563.38;4172790;28;19920;-69
2024/04/01 09:18:14;;;;;;;;;;;;;;;24.12;28.68;94567.72;4169076;28;19927;-67
2024/04/01 09:20:15;;;;;;;;;;;;;;;24.05;28.48;94569.78;4166442;28;19991;-70
2024/04/01 09:22:16;;;;;;;;;;;;;;;23.83;28.21;94565.19;4170769;28;19994;-68
2024/04/01 09:24:16;;;;;;;;;;;;;;;23.56;28.67;94572.22;4168349;28;20418;-72
2024/04/01 09:26:17;;;;;;;;;;;;;;;23.67;28.59;94563.28;4170428;28;20316;-68
2024/04/01 09:28:18;;;;;;;;;;;;;;;23.90;28.66;94570.34;4167402;28;20400;-68
2024/04/01 09:30:18;;;;;;;;;;;;;;;24.16;27.73;94565.38;4166334;28;19946;-68
2024/04/01 09:32:19;;;;;;;;;;;;;;;24.14;27.13;94554.09;4158137;28;20395;-70
2024/04/01 09:34:20;;;;;;;;;;;;;;;23.92;27.05;94553.00;4169026;28;20372;-69
2024/04/01 09:36:21;;;;;;;;;;;;;;;24.00;27.41;94550.94;4165676;28;20384;-71
2024/04/01 09:38:22;;;;;;;;;;;;;;;23.94;26.86;94546.56;4156211;28;19928;-71
2024/04/01 09:40:24;;;;;;;;;;;;;;;23.66;27.35;94549.13;4156413;28;19925;-71
2024/04/01 09:42:24;;;;;;;;;;;;;;;23.67;27.52;94552.59;4170278;28;19955;-69
2024/04/01 09:44:25;;;;;;;;;;;;;;;23.70;27.73;94546.75;4173031;28;20363;-69
2024/04/01 09:46:26;;;;;;;;;;;;;;;23.95;27.65;94540.19;4156204;28;20338;-70
2024/04/01 09:48:27;;;;;;;;;;;;;;;23.96;27.20;94531.91;4172284;28;19925;-70
2024/04/01 09:50:28;;;;;;;;;;;;;;;24.05;26.97;94540.34;4169127;28;19971;-70
2024/04/01 09:52:28;;;;;;;;;;;;;;;24.09;26.78;94542.25;4141064;28;20355;-69
2024/04/01 09:54:33;;;;;;;;;;;;;;;24.22;26.19;94534.91;4175260;28;19951;-69
2024/04/01 09:56:45;;;;;;;;;;;;;;;24.41;26.23;94536.22;4172758;28;19971;-67
2024/04/01 09:58:49;;;;;;;;;;;;;;;24.57;26.15;94531.91;4160647;28;19928;-70
2024/04/01 10:01:25;;;;;;;;;;;;;;;24.73;26.03;94519.47;4169043;28;19920;-70
2024/04/01 10:03:26;;;;;;;;;;;;;;;24.50;26.32;94532.09;4125958;28;19922;-69
2024/04/01 10:05:33;;;;;;;;;;;;;;;24.41;26.47;94527.38;4125689;28;19922;-70
2024/04/01 10:08:12;;;;;;;;;;;;;;;24.62;26.93;94515.09;4150515;28;20319;-71
2024/04/01 10:10:22;;;;;;;;;;;;;;;24.96;25.86;94515.72;4094798;28;19961;-69
2024/04/01 10:12:32;;;;;;;;;;;;;;;25.08;25.94;94502.97;4094083;28;19926;-69
2024/04/01 10:14:51;;;;;;;;;;;;;;;25.37;25.87;94499.22;4082722;28;19930;-69
2024/04/01 10:16:52;;;;;;;;;;;;;;;25.44;25.57;94508.63;4125986;28;20384;-70
2024/04/01 10:19:11;;;;;;;;;;;;;;;25.54;25.36;94500.66;4126251;28;19933;-69
2024/04/01 10:21:35;;;;;;;;;;;;;;;25.76;25.14;94505.09;4141398;28;19921;-68
2024/04/01 10:23:46;;;;;;;;;;;;;;;25.87;25.40;94505.97;4107967;28;20301;-69
2024/04/01 10:26:01;;;;;;;;;;;;;;;26.02;25.33;94498.03;4141621;28;19940;-71
2024/04/01 10:28:02;;;;;;;;;;;;;;;26.11;25.35;94490.28;4124956;28;19929;-69
2024/04/01 10:30:20;;;;;;;;;;;;;;;26.20;24.79;94487.91;4124910;28;19925;-68
2024/04/01 10:32:27;;;;;;;;;;;;;;;26.29;24.21;94491.75;4137663;28;20349;-69
2024/04/01 10:34:34;;;;;;;;;;;;;;;26.10;24.07;94488.69;4122607;28;19921;-69